createdAt,value
2023-05-20T00:00:41.498Z,8.10
2023-05-20T00:03:21.155Z,7.45
2023-05-20T00:05:49.585Z,7.95
2023-05-20T00:08:19.422Z,7.25
2023-05-20T00:10:47.873Z,7.65
2023-05-20T00:13:15.874Z,7.18
2023-05-20T00:15:44.214Z,6.65
2023-05-20T00:18:12.220Z,6.63
2023-05-20T00:20:40.500Z,6.20
2023-05-20T00:23:08.521Z,6.38
2023-05-20T00:25:37.119Z,6.53
2023-05-20T00:28:06.668Z,6.75
2023-05-20T00:30:35.985Z,6.38
2023-05-20T00:33:04.497Z,7.13
2023-05-20T00:35:32.773Z,5.95
2023-05-20T00:38:00.674Z,6.53
2023-05-20T00:40:28.948Z,6.10
2023-05-20T00:42:57.140Z,5.60
2023-05-20T00:45:26.034Z,7.03
2023-05-20T00:47:54.365Z,5.53
2023-05-20T00:50:22.952Z,5.43
2023-05-20T00:52:51.856Z,4.63
2023-05-20T00:55:19.969Z,5.28
2023-05-20T00:57:51.345Z,5.18
2023-05-20T01:00:19.825Z,4.37
2023-05-20T01:02:47.696Z,5.55
2023-05-20T01:05:16.106Z,5.28
2023-05-20T01:07:44.094Z,5.10
2023-05-20T01:10:12.883Z,4.50
2023-05-20T01:12:47.175Z,4.53
2023-05-20T01:15:16.745Z,4.28
2023-05-20T01:17:47.445Z,4.55
2023-05-20T01:20:16.327Z,6.05
2023-05-20T01:22:48.578Z,6.47
2023-05-20T01:25:17.027Z,6.13
2023-05-20T01:27:49.411Z,6.70
2023-05-20T01:30:18.051Z,6.38
2023-05-20T01:32:51.408Z,5.30
2023-05-20T01:35:22.726Z,4.03
2023-05-20T01:37:52.752Z,4.22
2023-05-20T01:40:22.103Z,4.45
2023-05-20T01:42:53.607Z,4.57
2023-05-20T01:45:22.341Z,4.35
2023-05-20T01:47:50.344Z,4.25
2023-05-20T01:50:18.721Z,4.13
2023-05-20T01:52:46.726Z,4.75
2023-05-20T01:55:15.171Z,5.30
2023-05-20T01:57:43.030Z,6.40
2023-05-20T02:00:11.900Z,7.05
2023-05-20T02:02:42.744Z,5.93
2023-05-20T02:05:13.629Z,5.32
2023-05-20T02:07:43.798Z,5.63
2023-05-20T02:10:12.103Z,6.40
2023-05-20T02:12:40.156Z,5.70
2023-05-20T02:15:08.855Z,6.95
2023-05-20T02:17:37.757Z,6.47
2023-05-20T02:20:08.016Z,6.13
2023-05-20T02:22:36.054Z,5.95
2023-05-20T02:25:05.828Z,5.70
2023-05-20T02:27:33.719Z,4.53
2023-05-20T02:30:02.112Z,5.00
2023-05-20T02:32:30.126Z,4.43
2023-05-20T02:34:58.312Z,4.57
2023-05-20T02:37:26.229Z,4.55
2023-05-20T02:39:56.777Z,3.83
2023-05-20T02:42:24.417Z,4.95
2023-05-20T02:44:56.472Z,4.80
2023-05-20T02:47:25.718Z,4.22
2023-05-20T02:49:53.898Z,4.40
2023-05-20T02:52:22.310Z,4.65
2023-05-20T02:54:50.902Z,4.57
2023-05-20T02:57:19.563Z,4.07
2023-05-20T02:59:48.326Z,4.72
2023-05-20T03:02:16.638Z,4.03
2023-05-20T03:04:47.171Z,4.18
2023-05-20T03:07:17.954Z,3.67
2023-05-20T03:09:46.467Z,3.97
2023-05-20T03:12:14.324Z,4.07
2023-05-20T03:14:42.973Z,4.30
2023-05-20T03:17:11.844Z,4.25
2023-05-20T03:19:41.717Z,4.15
2023-05-20T03:22:09.817Z,4.13
2023-05-20T03:24:37.866Z,4.03
2023-05-20T03:27:07.195Z,4.55
2023-05-20T03:29:36.796Z,4.85
2023-05-20T03:32:04.862Z,4.18
2023-05-20T03:34:33.238Z,4.40
2023-05-20T03:37:02.598Z,3.92
2023-05-20T03:39:31.314Z,4.43
2023-05-20T03:41:59.309Z,4.13
2023-05-20T03:44:27.740Z,4.43
2023-05-20T03:46:55.538Z,5.80
2023-05-20T03:49:24.198Z,4.80
2023-05-20T03:51:52.636Z,4.55
2023-05-20T03:54:20.999Z,4.30
2023-05-20T03:56:52.203Z,4.63
2023-05-20T03:59:20.338Z,4.53
2023-05-20T04:01:47.968Z,4.30
2023-05-20T04:04:16.372Z,4.63
2023-05-20T04:06:44.598Z,4.00
2023-05-20T04:09:13.833Z,4.10
2023-05-20T04:11:41.619Z,4.20
2023-05-20T04:14:10.979Z,3.85
2023-05-20T04:16:39.064Z,3.88
2023-05-20T04:19:07.781Z,4.22
2023-05-20T04:21:35.661Z,4.00
2023-05-20T04:24:04.524Z,3.83
2023-05-20T04:26:34.275Z,3.75
2023-05-20T04:29:04.636Z,3.90
2023-05-20T04:31:34.655Z,3.80
2023-05-20T04:34:03.418Z,3.90
2023-05-20T04:36:31.397Z,3.80
2023-05-20T04:39:01.925Z,3.92
2023-05-20T04:41:30.390Z,3.28
2023-05-20T04:44:02.094Z,3.88
2023-05-20T04:46:31.919Z,3.63
2023-05-20T04:49:00.294Z,4.00
2023-05-20T04:51:29.832Z,3.63
2023-05-20T04:53:59.446Z,3.47
2023-05-20T04:56:30.090Z,4.10
2023-05-20T04:58:58.929Z,3.53
2023-05-20T05:01:26.745Z,3.45
2023-05-20T05:03:55.823Z,3.72
2023-05-20T05:06:23.891Z,3.50
2023-05-20T05:08:52.395Z,3.30
2023-05-20T05:11:20.223Z,3.53
2023-05-20T05:13:48.757Z,3.60
2023-05-20T05:16:17.166Z,3.53
2023-05-20T05:18:45.482Z,3.80
2023-05-20T05:21:13.343Z,3.75
2023-05-20T05:23:42.812Z,3.42
2023-05-20T05:26:10.724Z,4.07
2023-05-20T05:28:38.890Z,3.85
2023-05-20T05:31:07.718Z,3.50
2023-05-20T05:33:36.328Z,4.20
2023-05-20T05:36:04.999Z,3.63
2023-05-20T05:38:33.637Z,3.42
2023-05-20T05:41:02.051Z,3.30
2023-05-20T05:43:30.984Z,4.00
2023-05-20T05:45:59.347Z,3.38
2023-05-20T05:48:27.875Z,3.65
2023-05-20T05:50:56.236Z,3.30
2023-05-20T05:53:24.866Z,3.90
2023-05-20T05:55:53.285Z,3.80
2023-05-20T05:58:21.805Z,3.90
2023-05-20T06:00:53.342Z,3.78
2023-05-20T06:03:21.982Z,4.65
2023-05-20T06:05:50.256Z,3.72
2023-05-20T06:08:21.808Z,3.83
2023-05-20T06:10:50.645Z,4.13
2023-05-20T06:13:19.308Z,3.97
2023-05-20T06:15:50.003Z,4.30
2023-05-20T06:18:18.482Z,4.05
2023-05-20T06:20:47.024Z,4.00
2023-05-20T06:23:15.082Z,4.00
2023-05-20T06:26:08.575Z,3.92
2023-05-20T06:28:37.829Z,4.15
2023-05-20T06:31:06.702Z,3.72
2023-05-20T06:33:37.154Z,3.65
2023-05-20T06:36:11.850Z,3.50
2023-05-20T06:38:40.385Z,3.83
2023-05-20T06:41:08.907Z,4.70
2023-05-20T06:43:37.278Z,4.45
2023-05-20T06:46:09.979Z,4.20
2023-05-20T06:48:47.782Z,4.47
2023-05-20T06:51:15.657Z,4.32
2023-05-20T06:53:47.118Z,4.05
2023-05-20T06:56:15.772Z,4.65
2023-05-20T06:58:45.472Z,4.72
2023-05-20T07:01:13.892Z,4.22
2023-05-20T07:03:44.904Z,4.28
2023-05-20T07:06:13.373Z,4.45
2023-05-20T07:08:41.666Z,4.15
2023-05-20T07:11:10.221Z,3.50
2023-05-20T07:13:38.685Z,4.95
2023-05-20T07:16:07.380Z,4.30
2023-05-20T07:18:38.604Z,4.50
2023-05-20T07:21:07.045Z,4.45
2023-05-20T07:23:53.695Z,5.30
2023-05-20T07:26:22.326Z,4.47
2023-05-20T07:28:50.958Z,4.30
2023-05-20T07:31:18.892Z,4.32
2023-05-20T07:33:47.474Z,4.50
2023-05-20T07:36:15.526Z,4.70
2023-05-20T07:39:00.980Z,4.00
2023-05-20T07:41:32.081Z,5.50
2023-05-20T07:44:03.746Z,3.80
2023-05-20T07:46:33.156Z,3.67
2023-05-20T07:49:01.711Z,4.25
2023-05-20T07:51:29.555Z,4.32
2023-05-20T07:53:58.512Z,3.88
2023-05-20T07:56:27.716Z,4.90
2023-05-20T07:58:58.709Z,4.38
2023-05-20T08:01:31.426Z,4.28
2023-05-20T08:04:00.488Z,4.30
2023-05-20T08:06:29.892Z,4.32
2023-05-20T08:08:59.149Z,3.97
2023-05-20T08:14:02.381Z,4.00
2023-05-20T08:16:36.795Z,4.30
2023-05-20T08:19:04.931Z,4.22
2023-05-20T08:21:33.529Z,4.50
2023-05-20T08:24:01.877Z,4.10
2023-05-20T08:26:30.189Z,4.63
2023-05-20T08:28:58.476Z,4.72
2023-05-20T08:31:26.978Z,3.92
2023-05-20T08:33:55.550Z,4.20
2023-05-20T08:36:24.241Z,4.00
2023-05-20T08:38:52.693Z,4.28
2023-05-20T08:41:22.548Z,4.30
2023-05-20T08:43:51.608Z,4.03
2023-05-20T08:46:23.005Z,4.28
2023-05-20T08:48:51.824Z,4.07
2023-05-20T08:51:24.362Z,4.00
2023-05-20T08:53:52.788Z,3.88
2023-05-20T08:56:20.639Z,4.63
2023-05-20T08:58:49.070Z,4.22
2023-05-20T09:01:17.412Z,4.30
2023-05-20T09:03:46.511Z,3.97
2023-05-20T09:06:21.443Z,4.63
2023-05-20T09:08:50.737Z,5.43
2023-05-20T09:11:19.332Z,5.43
2023-05-20T09:13:47.711Z,5.60
2023-05-20T09:16:16.211Z,5.50
2023-05-20T09:18:43.936Z,5.00
2023-05-20T09:21:12.241Z,5.15
2023-05-20T09:23:40.811Z,5.00
2023-05-20T09:26:08.593Z,5.03
2023-05-20T09:28:38.586Z,4.97
2023-05-20T09:31:07.442Z,5.05
2023-05-20T09:33:36.098Z,4.78
2023-05-20T09:36:09.299Z,5.13
2023-05-20T09:38:40.135Z,5.43
2023-05-20T09:41:09.767Z,5.00
2023-05-20T09:43:40.249Z,5.22
2023-05-20T09:46:08.949Z,4.95
2023-05-20T09:48:37.959Z,4.72
2023-05-20T09:51:07.501Z,5.50
2023-05-20T09:53:36.393Z,5.38
2023-05-20T09:56:04.477Z,5.15
2023-05-20T09:58:34.761Z,6.28
2023-05-20T10:01:02.865Z,5.78
2023-05-20T10:03:32.512Z,6.07
2023-05-20T10:06:37.856Z,5.68
2023-05-20T10:09:24.003Z,5.68
2023-05-20T10:12:29.124Z,5.57
2023-05-20T10:15:23.404Z,5.65
2023-05-20T10:18:10.101Z,5.60
2023-05-20T10:20:51.444Z,6.22
2023-05-20T10:23:23.136Z,5.45
2023-05-20T10:25:53.694Z,5.03
2023-05-20T10:28:38.033Z,5.50
2023-05-20T10:31:25.994Z,5.45
2023-05-20T10:33:54.455Z,5.90
2023-05-20T10:36:27.389Z,5.75
2023-05-20T10:38:59.704Z,6.50
2023-05-20T10:44:05.849Z,5.57
2023-05-20T10:46:48.633Z,6.55
2023-05-20T10:49:26.160Z,5.93
2023-05-20T10:51:55.840Z,5.63
2023-05-20T10:54:23.950Z,5.85
2023-05-20T10:56:53.904Z,5.60
2023-05-20T10:59:22.491Z,5.90
2023-05-20T11:01:51.558Z,6.10
2023-05-20T11:04:20.023Z,6.03
2023-05-20T11:06:54.539Z,5.53
2023-05-20T11:09:23.010Z,5.80
2023-05-20T11:11:55.583Z,5.97
2023-05-20T11:14:23.509Z,5.82
2023-05-20T11:16:53.887Z,6.30
2023-05-20T11:19:22.213Z,6.25
2023-05-20T11:21:51.745Z,6.55
2023-05-20T11:24:27.726Z,5.68
2023-05-20T11:26:57.689Z,6.10
2023-05-20T11:29:27.148Z,6.35
2023-05-20T11:31:55.867Z,6.53
2023-05-20T11:34:26.784Z,6.05
2023-05-20T11:36:58.118Z,5.65
2023-05-20T11:39:27.892Z,5.90
2023-05-20T11:41:56.595Z,5.95
2023-05-20T11:44:25.072Z,6.28
2023-05-20T11:47:01.051Z,5.63
2023-05-20T11:49:29.300Z,5.32
2023-05-20T11:51:58.082Z,6.15
2023-05-20T11:54:26.509Z,5.57
2023-05-20T11:56:56.174Z,5.82
2023-05-20T11:59:25.257Z,6.20
2023-05-20T12:01:53.543Z,6.22
2023-05-20T12:04:22.222Z,6.35
2023-05-20T12:06:50.689Z,5.25
2023-05-20T12:09:18.484Z,5.88
2023-05-20T12:11:46.671Z,5.75
2023-05-20T12:14:14.921Z,5.65
2023-05-20T12:16:43.272Z,5.97
2023-05-20T12:19:11.514Z,6.47
2023-05-20T12:21:39.885Z,7.22
2023-05-20T12:24:08.824Z,6.15
2023-05-20T12:26:37.450Z,5.72
2023-05-20T12:29:05.727Z,5.95
2023-05-20T12:31:35.085Z,6.10
2023-05-20T12:34:03.285Z,6.60
2023-05-20T12:36:32.886Z,6.40
2023-05-20T12:39:01.388Z,6.18
2023-05-20T12:41:29.344Z,5.25
2023-05-20T12:43:56.807Z,5.68
2023-05-20T12:46:25.211Z,6.40
2023-05-20T12:48:53.692Z,5.75
2023-05-20T12:51:21.799Z,6.10
2023-05-20T12:53:49.982Z,5.65
2023-05-20T12:56:18.985Z,5.68
2023-05-20T12:58:47.086Z,5.63
2023-05-20T13:01:15.743Z,5.60
2023-05-20T13:03:43.475Z,5.97
2023-05-20T13:06:11.832Z,5.65
2023-05-20T13:08:39.905Z,5.40
2023-05-20T13:11:08.184Z,5.63
2023-05-20T13:13:35.954Z,6.20
2023-05-20T13:16:04.781Z,5.57
2023-05-20T13:18:32.725Z,5.88
2023-05-20T13:21:01.242Z,5.95
2023-05-20T13:23:29.242Z,5.43
2023-05-20T13:25:57.773Z,5.63
2023-05-20T13:28:25.696Z,6.03
2023-05-20T13:30:54.063Z,5.82
2023-05-20T13:33:23.763Z,6.00
2023-05-20T13:35:52.237Z,6.25
2023-05-20T13:38:20.170Z,5.70
2023-05-20T13:40:49.507Z,6.10
2023-05-20T13:43:17.378Z,5.65
2023-05-20T13:45:45.924Z,5.75
2023-05-20T13:48:13.812Z,4.97
2023-05-20T13:50:42.415Z,5.47
2023-05-20T13:53:14.112Z,5.95
2023-05-20T13:55:43.068Z,5.50
2023-05-20T13:58:11.198Z,5.70
2023-05-20T14:00:39.930Z,6.22
2023-05-20T14:03:09.567Z,5.22
2023-05-20T14:05:38.160Z,5.72
2023-05-20T14:08:06.452Z,5.35
2023-05-20T14:10:34.908Z,5.45
2023-05-20T14:13:03.327Z,5.72
2023-05-20T14:15:31.833Z,5.88
2023-05-20T14:18:00.599Z,5.80
2023-05-20T14:20:28.723Z,5.28
2023-05-20T14:22:56.615Z,5.90
2023-05-20T14:25:25.262Z,5.47
2023-05-20T14:27:52.958Z,5.22
2023-05-20T14:30:21.250Z,5.22
2023-05-20T14:32:49.332Z,4.78
2023-05-20T14:35:18.654Z,5.05
2023-05-20T14:37:46.477Z,5.70
2023-05-20T14:40:14.886Z,6.45
2023-05-20T14:42:42.720Z,5.20
2023-05-20T14:45:11.363Z,5.72
2023-05-20T14:47:40.775Z,5.40
2023-05-20T14:50:09.665Z,5.57
2023-05-20T14:52:37.721Z,5.82
2023-05-20T14:55:06.863Z,6.43
2023-05-20T14:57:34.696Z,5.82
2023-05-20T15:00:03.222Z,5.45
2023-05-20T15:02:31.790Z,5.35
2023-05-20T15:05:00.463Z,5.63
2023-05-20T15:07:28.268Z,5.38
2023-05-20T15:09:56.905Z,4.93
2023-05-20T15:12:24.674Z,5.60
2023-05-20T15:14:53.299Z,5.68
2023-05-20T15:17:22.021Z,5.78
2023-05-20T15:19:50.470Z,6.07
2023-05-20T15:22:21.821Z,5.70
2023-05-20T15:24:51.881Z,5.18
2023-05-20T15:27:19.780Z,5.60
2023-05-20T15:29:49.226Z,5.78
2023-05-20T15:32:17.937Z,5.68
2023-05-20T15:34:46.523Z,5.35
2023-05-20T15:37:14.344Z,6.13
2023-05-20T15:39:42.723Z,6.07
2023-05-20T15:42:14.386Z,5.70
2023-05-20T15:44:42.946Z,5.80
2023-05-20T15:47:11.060Z,6.07
2023-05-20T15:49:39.545Z,5.43
2023-05-20T15:52:07.471Z,5.72
2023-05-20T15:54:35.994Z,5.90
2023-05-20T15:57:04.566Z,4.97
2023-05-20T15:59:33.175Z,5.75
2023-05-20T16:02:01.092Z,4.93
2023-05-20T16:04:29.749Z,5.80
2023-05-20T16:06:57.891Z,5.20
2023-05-20T16:09:26.522Z,5.30
2023-05-20T16:11:54.665Z,5.10
2023-05-20T16:14:23.231Z,5.32
2023-05-20T16:16:51.135Z,4.93
2023-05-20T16:19:19.836Z,5.03
2023-05-20T16:21:47.965Z,5.50
2023-05-20T16:24:16.641Z,5.28
2023-05-20T16:26:44.904Z,5.10
2023-05-20T16:29:15.668Z,4.95
2023-05-20T16:31:47.233Z,5.55
2023-05-20T16:34:16.910Z,5.30
2023-05-20T16:36:48.277Z,5.50
2023-05-20T16:39:17.022Z,5.20
2023-05-20T16:41:45.479Z,4.97
2023-05-20T16:44:13.502Z,5.00
2023-05-20T16:46:41.747Z,4.97
2023-05-20T16:49:10.461Z,5.18
2023-05-20T16:51:38.471Z,4.88
2023-05-20T16:54:06.815Z,4.68
2023-05-20T16:56:37.270Z,4.85
2023-05-20T16:59:06.127Z,5.38
2023-05-20T17:01:34.240Z,5.53
2023-05-20T17:04:03.529Z,5.15
2023-05-20T17:06:34.569Z,4.97
2023-05-20T17:09:07.502Z,5.35
2023-05-20T17:14:05.660Z,4.85
2023-05-20T17:16:33.735Z,5.57
2023-05-20T17:19:01.679Z,5.60
2023-05-20T17:21:29.402Z,5.10
2023-05-20T17:23:57.734Z,5.60
2023-05-20T17:26:26.221Z,5.88
2023-05-20T17:28:54.819Z,5.35
2023-05-20T17:31:22.773Z,5.32
2023-05-20T17:33:51.455Z,5.32
2023-05-20T17:36:19.632Z,5.05
2023-05-20T17:38:49.470Z,4.95
2023-05-20T17:41:20.290Z,4.80
2023-05-20T17:43:48.685Z,5.32
2023-05-20T17:46:16.728Z,5.40
2023-05-20T17:48:46.330Z,5.20
2023-05-20T17:51:14.380Z,4.82
2023-05-20T17:53:42.681Z,4.95
2023-05-20T17:56:11.460Z,4.65
2023-05-20T17:58:39.605Z,5.05
2023-05-20T18:01:09.820Z,5.53
2023-05-20T18:03:40.205Z,5.22
2023-05-20T18:06:09.073Z,4.95
2023-05-20T18:08:37.287Z,5.18
2023-05-20T18:11:05.549Z,5.90
2023-05-20T18:13:33.769Z,5.63
2023-05-20T18:16:01.898Z,6.38
2023-05-20T18:18:30.377Z,5.38
2023-05-20T18:20:58.340Z,5.32
2023-05-20T18:23:26.981Z,6.13
2023-05-20T18:25:55.585Z,5.38
2023-05-20T18:28:23.732Z,6.55
2023-05-20T18:30:51.615Z,5.70
2023-05-20T18:33:20.144Z,6.38
2023-05-20T18:35:47.908Z,6.50
2023-05-20T18:38:16.343Z,6.20
2023-05-20T18:40:44.312Z,6.75
2023-05-20T18:43:12.920Z,6.32
2023-05-20T18:45:41.343Z,6.15
2023-05-20T18:48:09.992Z,6.15
2023-05-20T18:50:38.090Z,5.95
2023-05-20T18:53:06.589Z,5.88
2023-05-20T18:55:35.232Z,6.43
2023-05-20T18:58:03.300Z,6.20
2023-05-20T19:00:31.567Z,6.32
2023-05-20T19:03:00.277Z,6.78
2023-05-20T19:05:28.276Z,6.97
2023-05-20T19:07:56.851Z,7.28
2023-05-20T19:10:26.201Z,6.47
2023-05-20T19:12:56.333Z,7.65
2023-05-20T19:15:24.471Z,9.90
2023-05-20T19:17:53.037Z,9.30
2023-05-20T19:20:21.077Z,13.73
2023-05-20T19:22:49.720Z,10.20
2023-05-20T19:25:17.722Z,8.93
2023-05-20T19:27:46.300Z,10.88
2023-05-20T19:30:14.071Z,8.13
2023-05-20T19:32:42.659Z,7.80
2023-05-20T19:35:11.245Z,7.43
2023-05-20T19:37:39.747Z,7.38
2023-05-20T19:40:08.466Z,9.15
2023-05-20T19:42:36.951Z,8.30
2023-05-20T19:45:05.311Z,8.10
2023-05-20T19:47:33.954Z,9.02
2023-05-20T19:50:02.507Z,8.57
2023-05-20T19:52:35.268Z,9.73
2023-05-20T19:55:03.706Z,10.80
2023-05-20T19:57:32.240Z,9.48
2023-05-20T20:00:00.234Z,9.88
2023-05-20T20:02:28.654Z,9.70
2023-05-20T20:04:56.803Z,10.75
2023-05-20T20:07:26.505Z,11.30
2023-05-20T20:09:55.926Z,12.18
2023-05-20T20:12:25.083Z,13.80
2023-05-20T20:14:53.003Z,12.05
2023-05-20T20:17:23.445Z,11.38
2023-05-20T20:19:53.794Z,12.07
2023-05-20T20:22:22.315Z,11.95
2023-05-20T20:24:50.347Z,12.05
2023-05-20T20:27:19.801Z,11.55
2023-05-20T20:29:47.970Z,12.68
2023-05-20T20:32:18.282Z,11.43
2023-05-20T20:34:46.963Z,12.55
2023-05-20T20:37:15.550Z,11.52
2023-05-20T20:39:48.621Z,11.48
2023-05-20T20:42:18.868Z,12.00
2023-05-20T20:44:48.378Z,12.38
2023-05-20T20:47:16.856Z,11.80
2023-05-20T20:49:45.784Z,10.73
2023-05-20T20:52:14.238Z,12.05
2023-05-20T20:54:43.322Z,11.45
2023-05-20T20:57:14.017Z,12.48
2023-05-20T20:59:48.025Z,10.40
2023-05-20T21:02:19.185Z,11.07
2023-05-20T21:04:48.028Z,10.85
2023-05-20T21:07:18.832Z,10.63
2023-05-20T21:09:47.175Z,10.57
2023-05-20T21:12:15.404Z,11.00
2023-05-20T21:14:44.613Z,12.07
2023-05-20T21:17:13.664Z,10.57
2023-05-20T21:19:41.401Z,10.82
2023-05-20T21:22:09.982Z,10.07
2023-05-20T21:24:37.848Z,9.70
2023-05-20T21:27:06.822Z,10.20
2023-05-20T21:29:36.168Z,9.57
2023-05-20T21:32:06.108Z,10.02
2023-05-20T21:34:34.194Z,10.30
2023-05-20T21:37:02.251Z,11.02
2023-05-20T21:39:30.695Z,10.15
2023-05-20T21:41:58.881Z,10.85
2023-05-20T21:44:26.688Z,10.65
2023-05-20T21:46:55.323Z,11.25
2023-05-20T21:49:23.165Z,10.30
2023-05-20T21:51:51.822Z,10.05
2023-05-20T21:54:19.640Z,10.43
2023-05-20T21:56:47.905Z,9.90
2023-05-20T21:59:16.551Z,10.05
2023-05-20T22:01:45.284Z,9.68
2023-05-20T22:04:13.330Z,9.60
2023-05-20T22:06:41.990Z,9.65
2023-05-20T22:09:10.013Z,9.95
2023-05-20T22:11:38.442Z,10.23
2023-05-20T22:14:06.596Z,9.20
2023-05-20T22:16:35.344Z,9.35
2023-05-20T22:19:03.819Z,9.07
2023-05-20T22:21:39.651Z,9.27
2023-05-20T22:24:16.399Z,9.15
2023-05-20T22:26:45.277Z,9.48
2023-05-20T22:29:13.215Z,9.48
2023-05-20T22:31:42.054Z,9.43
2023-05-20T22:34:10.409Z,9.13
2023-05-20T22:36:39.833Z,8.80
2023-05-20T22:39:07.976Z,9.30
2023-05-20T22:41:36.695Z,9.02
2023-05-20T22:44:05.187Z,9.40
2023-05-20T22:46:33.687Z,8.35
2023-05-20T22:49:02.109Z,8.68
2023-05-20T22:51:34.367Z,8.70
2023-05-20T22:54:02.181Z,9.05
2023-05-20T22:56:32.766Z,10.38
2023-05-20T22:59:01.308Z,10.90
2023-05-20T23:01:30.000Z,10.35
2023-05-20T23:03:58.259Z,10.15
2023-05-20T23:06:27.364Z,9.32
2023-05-20T23:08:55.493Z,10.57
2023-05-20T23:11:24.161Z,9.70
2023-05-20T23:13:52.204Z,10.13
2023-05-20T23:16:20.708Z,9.60
2023-05-20T23:18:48.637Z,9.20
2023-05-20T23:21:17.727Z,8.98
2023-05-20T23:23:46.349Z,10.77
2023-05-20T23:26:15.141Z,9.70
2023-05-20T23:28:43.122Z,9.95
2023-05-20T23:31:12.451Z,9.98
2023-05-20T23:33:40.590Z,9.18
2023-05-20T23:36:09.931Z,9.43
2023-05-20T23:38:37.725Z,9.95
2023-05-20T23:41:06.078Z,9.05
2023-05-20T23:43:34.094Z,9.48
2023-05-20T23:46:02.548Z,9.38
2023-05-20T23:48:30.164Z,9.20
2023-05-20T23:50:58.854Z,9.25
2023-05-20T23:53:26.716Z,9.65
2023-05-20T23:55:55.586Z,9.60
2023-05-20T23:58:24.075Z,9.13
